Time;durP1;ratioP1;P1;durP2;ratioP2;P2;SDS_P1;SDS_P2;PMS_P1;PMS_P2;Temp;Humidity;BMP_temperature;BMP_pressure;BME280_temperature;BME280_humidity;BME280_pressure;Samples;Min_cycle;Max_cycle;Signal;HPM_P1;HPM_P2
2021/06/23 00:00:43;;;;;;;3.97;2.20;;;21.70;55.10;;;;;;5035767;28;20026;-65
2021/06/23 00:03:09;;;;;;;6.13;2.85;;;21.80;55.10;;;;;;5035882;28;20037;-65
2021/06/23 00:05:34;;;;;;;4.13;2.10;;;21.80;55.10;;;;;;5035749;28;20143;-65
2021/06/23 00:08:00;;;;;;;4.93;2.65;;;21.70;55.20;;;;;;5035666;28;20024;-65
2021/06/23 00:10:26;;;;;;;5.50;2.42;;;21.80;55.20;;;;;;5035659;28;20460;-66
2021/06/23 00:12:51;;;;;;;4.75;2.35;;;21.70;55.20;;;;;;5035755;28;20021;-65
2021/06/23 00:15:18;;;;;;;4.20;2.30;;;21.70;55.20;;;;;;5035995;28;20466;-65
2021/06/23 00:17:44;;;;;;;4.53;2.20;;;21.70;55.10;;;;;;5035646;28;20033;-66
2021/06/23 00:20:11;;;;;;;5.55;2.60;;;21.70;55.10;;;;;;5035505;28;20438;-66
2021/06/23 00:22:36;;;;;;;5.88;2.53;;;21.70;55.10;;;;;;5035402;28;20037;-66
2021/06/23 00:25:03;;;;;;;6.40;2.50;;;21.70;55.20;;;;;;5035551;28;20022;-65
2021/06/23 00:27:28;;;;;;;5.53;2.38;;;21.70;55.10;;;;;;5035278;28;20025;-65
2021/06/23 00:29:54;;;;;;;4.55;2.22;;;21.70;55.10;;;;;;5035436;28;20022;-65
2021/06/23 00:32:21;;;;;;;4.13;2.08;;;21.70;55.20;;;;;;5035293;28;20525;-65
2021/06/23 00:34:47;;;;;;;5.13;2.25;;;21.70;55.10;;;;;;5035319;28;20032;-65
2021/06/23 00:37:13;;;;;;;5.57;2.08;;;21.70;55.10;;;;;;5017343;28;20041;-65
2021/06/23 00:39:38;;;;;;;7.22;2.53;;;21.70;55.10;;;;;;5035059;28;20021;-65
2021/06/23 00:42:07;;;;;;;4.35;2.40;;;21.70;55.20;;;;;;5035214;28;20033;-65
2021/06/23 00:44:32;;;;;;;6.25;2.63;;;21.60;55.20;;;;;;5017911;28;20046;-66
2021/06/23 00:46:58;;;;;;;4.07;2.05;;;21.70;55.20;;;;;;5035161;28;20396;-66
2021/06/23 00:49:30;;;;;;;4.18;2.40;;;21.60;55.10;;;;;;5035000;28;20029;-65
2021/06/23 00:51:55;;;;;;;5.13;1.90;;;21.60;55.20;;;;;;5034916;28;20466;-65
2021/06/23 00:54:21;;;;;;;4.55;2.50;;;21.60;55.20;;;;;;5034874;28;20037;-65
2021/06/23 00:56:47;;;;;;;4.80;2.65;;;21.60;55.10;;;;;;5034725;28;20057;-65
2021/06/23 00:59:13;;;;;;;4.97;2.05;;;21.60;55.20;;;;;;5034809;28;20075;-65
2021/06/23 01:01:42;;;;;;;3.65;2.22;;;21.60;55.20;;;;;;5034743;28;20030;-66
2021/06/23 01:04:08;;;;;;;5.22;2.25;;;21.60;55.20;;;;;;5034673;28;20095;-66
2021/06/23 01:06:34;;;;;;;5.55;2.30;;;21.60;55.20;;;;;;5034355;28;20381;-65
2021/06/23 01:09:01;;;;;;;7.15;2.80;;;21.60;55.20;;;;;;5034732;28;20037;-65
2021/06/23 01:11:30;;;;;;;4.40;2.22;;;21.60;55.20;;;;;;5034718;28;20029;-65
2021/06/23 01:14:04;;;;;;;5.50;2.10;;;21.60;55.20;;;;;;5034730;28;20025;-65
2021/06/23 01:16:33;;;;;;;5.45;2.33;;;21.60;55.20;;;;;;5034492;28;20029;-65
2021/06/23 01:19:00;;;;;;;4.88;2.05;;;21.50;55.20;;;;;;5034631;28;20037;-66
2021/06/23 01:21:27;;;;;;;4.28;2.28;;;21.60;55.20;;;;;;5034702;28;20045;-66
2021/06/23 01:23:53;;;;;;;5.80;2.20;;;21.60;55.20;;;;;;5034348;28;20033;-65
2021/06/23 01:26:19;;;;;;;4.28;2.10;;;21.60;55.20;;;;;;5034446;28;20044;-65
2021/06/23 01:28:45;;;;;;;4.72;2.70;;;21.60;55.20;;;;;;5034312;28;20029;-65
2021/06/23 01:31:11;;;;;;;5.15;2.15;;;21.60;55.10;;;;;;5034291;28;20427;-65
2021/06/23 01:33:37;;;;;;;5.72;2.83;;;21.50;55.20;;;;;;5034056;28;20026;-66
2021/06/23 01:36:03;;;;;;;5.28;2.35;;;21.60;55.20;;;;;;5034052;28;20029;-65
2021/06/23 01:38:29;;;;;;;7.25;2.53;;;21.60;55.20;;;;;;5033875;28;20044;-65
2021/06/23 01:40:55;;;;;;;4.03;2.22;;;21.60;55.20;;;;;;5034038;28;20030;-65
2021/06/23 01:43:21;;;;;;;5.07;2.75;;;21.50;55.30;;;;;;5033877;28;20385;-65
2021/06/23 01:45:47;;;;;;;5.93;2.50;;;21.60;55.30;;;;;;5033775;28;20132;-65
2021/06/23 01:48:14;;;;;;;6.93;2.53;;;21.50;55.30;;;;;;5033701;28;20426;-66
2021/06/23 01:50:40;;;;;;;6.07;2.45;;;21.50;55.30;;;;;;5033828;28;20492;-66
2021/06/23 01:53:06;;;;;;;3.72;2.00;;;21.50;55.20;;;;;;5034041;28;20085;-65
2021/06/23 01:55:32;;;;;;;4.40;2.15;;;21.50;55.30;;;;;;5033671;28;20056;-65
2021/06/23 01:58:09;;;;;;;3.70;2.13;;;21.50;55.20;;;;;;5033645;28;20034;-66
2021/06/23 02:00:53;;;;;;;5.03;2.55;;;21.50;55.20;;;;;;5034098;28;20120;-66
2021/06/23 02:03:34;;;;;;;;;;;21.50;55.20;;;;;;5016258;28;20025;-66
2021/06/23 02:06:16;;;;;;;4.50;2.13;;;21.50;55.20;;;;;;5033745;28;19954;-66
2021/06/23 02:08:50;;;;;;;7.47;3.00;;;21.50;55.20;;;;;;5033463;28;20029;-65
2021/06/23 02:11:32;;;;;;;5.10;2.22;;;21.50;55.30;;;;;;5033444;28;20030;-65
2021/06/23 02:14:19;;;;;;;5.30;2.40;;;21.50;55.30;;;;;;5033788;28;20025;-65
2021/06/23 02:16:48;;;;;;;3.97;2.28;;;21.50;55.30;;;;;;5033336;28;20433;-65
2021/06/23 02:19:14;;;;;;;4.97;2.38;;;21.50;55.30;;;;;;5032801;28;20029;-65
2021/06/23 02:21:40;;;;;;;5.80;2.30;;;21.50;55.30;;;;;;5033429;28;20038;-66
2021/06/23 02:24:08;;;;;;;3.63;2.17;;;21.50;55.30;;;;;;5015450;28;20026;-65
2021/06/23 02:26:34;;;;;;;5.70;2.53;;;21.50;55.30;;;;;;5016038;28;20026;-66
2021/06/23 02:29:01;;;;;;;6.28;3.05;;;21.50;55.30;;;;;;5033169;28;20481;-65
2021/06/23 02:31:28;;;;;;;5.80;2.45;;;21.50;55.30;;;;;;5033573;28;20032;-65
2021/06/23 02:33:55;;;;;;;5.40;2.40;;;21.50;55.30;;;;;;5015520;28;20105;-66
2021/06/23 02:36:22;;;;;;;5.20;2.75;;;21.50;55.30;;;;;;5033254;28;20481;-65
2021/06/23 02:38:48;;;;;;;5.70;2.47;;;21.50;55.30;;;;;;5032998;28;20045;-65
2021/06/23 02:41:16;;;;;;;7.20;2.40;;;21.50;55.30;;;;;;5015534;28;20533;-66
2021/06/23 02:43:42;;;;;;;4.22;2.20;;;21.50;55.30;;;;;;5033346;28;20029;-66
2021/06/23 02:46:08;;;;;;;5.05;2.50;;;21.40;55.30;;;;;;5032953;28;20041;-65
2021/06/23 02:48:33;;;;;;;4.60;2.58;;;21.50;55.30;;;;;;5033084;28;20028;-65
2021/06/23 02:51:05;;;;;;;4.10;2.17;;;21.50;55.30;;;;;;5033195;28;20496;-66
2021/06/23 02:53:31;;;;;;;5.05;2.40;;;21.40;55.30;;;;;;5033246;28;20018;-65
2021/06/23 02:55:58;;;;;;;5.55;2.38;;;21.40;55.40;;;;;;5032932;28;20030;-65
2021/06/23 02:58:24;;;;;;;3.90;2.00;;;21.40;55.40;;;;;;5033095;28;20112;-66
2021/06/23 03:00:51;;;;;;;5.65;2.42;;;21.40;55.40;;;;;;5033226;28;20056;-66
2021/06/23 03:03:17;;;;;;;6.05;2.60;;;21.40;55.30;;;;;;5033112;28;20033;-66
2021/06/23 03:05:43;;;;;;;6.00;2.80;;;21.40;55.40;;;;;;5032631;28;20029;-65
2021/06/23 03:08:08;;;;;;;5.03;2.38;;;21.40;55.30;;;;;;5032999;28;20025;-65
2021/06/23 03:10:34;;;;;;;3.83;2.40;;;21.40;55.30;;;;;;5033052;28;20021;-65
2021/06/23 03:13:00;;;;;;;5.47;2.55;;;21.40;55.30;;;;;;5032945;28;20435;-65
2021/06/23 03:15:25;;;;;;;4.38;2.35;;;21.40;55.30;;;;;;5033031;28;20028;-65
2021/06/23 03:17:51;;;;;;;4.55;2.15;;;21.40;55.40;;;;;;5033398;28;20040;-65
2021/06/23 03:20:17;;;;;;;4.82;2.22;;;21.40;55.30;;;;;;5032897;28;20018;-65
2021/06/23 03:22:43;;;;;;;5.15;2.50;;;21.40;55.40;;;;;;5033120;28;20369;-65
2021/06/23 03:25:09;;;;;;;4.43;1.95;;;21.30;55.30;;;;;;5033157;28;20104;-66
2021/06/23 03:27:34;;;;;;;7.07;2.50;;;21.30;55.40;;;;;;5032885;28;20025;-65
2021/06/23 03:30:00;;;;;;;5.72;2.22;;;21.30;55.30;;;;;;5034321;28;20489;-65
2021/06/23 03:32:25;;;;;;;7.40;2.80;;;21.30;55.30;;;;;;5037015;28;20489;-65
2021/06/23 03:34:51;;;;;;;5.82;2.65;;;21.40;55.40;;;;;;5037046;28;20049;-65
2021/06/23 03:37:16;;;;;;;5.25;2.72;;;21.40;55.30;;;;;;5036997;28;20026;-65
2021/06/23 03:39:43;;;;;;;7.13;2.50;;;21.30;55.40;;;;;;5036877;28;20033;-65
2021/06/23 03:42:08;;;;;;;5.40;2.42;;;21.30;55.30;;;;;;5038690;28;20465;-65
2021/06/23 03:44:34;;;;;;;6.65;2.80;;;21.30;55.40;;;;;;5036701;28;20073;-65
2021/06/23 03:47:02;;;;;;;6.53;2.70;;;21.30;55.40;;;;;;5041558;28;20061;-70
2021/06/23 03:49:27;;;;;;;4.05;2.22;;;21.30;55.30;;;;;;5047266;28;20021;-67
2021/06/23 03:51:53;;;;;;;5.97;2.25;;;21.30;55.30;;;;;;5047806;28;20085;-72
2021/06/23 03:54:19;;;;;;;4.25;2.25;;;21.30;55.40;;;;;;5047584;28;20018;-66
2021/06/23 03:56:45;;;;;;;4.53;2.38;;;21.30;55.30;;;;;;5046807;28;20025;-67
2021/06/23 03:59:10;;;;;;;5.25;2.45;;;21.30;55.30;;;;;;5050036;28;20040;-65
2021/06/23 04:01:36;;;;;;;4.20;2.50;;;21.30;55.30;;;;;;5047054;28;20040;-65
2021/06/23 04:04:01;;;;;;;4.88;2.28;;;21.30;55.30;;;;;;5046873;28;20029;-66
2021/06/23 04:06:28;;;;;;;4.47;2.35;;;21.30;55.30;;;;;;5046586;28;20030;-65
2021/06/23 04:08:53;;;;;;;4.88;2.08;;;21.30;55.30;;;;;;5042090;28;20025;-65
2021/06/23 04:11:19;;;;;;;7.43;2.70;;;21.30;55.30;;;;;;5036021;28;20033;-65
2021/06/23 04:13:45;;;;;;;4.97;2.20;;;21.30;55.30;;;;;;5035902;28;20428;-65
2021/06/23 04:16:12;;;;;;;5.15;2.50;;;21.30;55.20;;;;;;5035768;28;20083;-65
2021/06/23 04:18:37;;;;;;;5.10;2.22;;;21.30;55.30;;;;;;5035633;28;20462;-65
2021/06/23 04:21:04;;;;;;;3.60;2.13;;;21.30;55.30;;;;;;5035588;28;20053;-65
2021/06/23 04:23:30;;;;;;;4.35;2.03;;;21.30;55.30;;;;;;5035644;28;20063;-65
2021/06/23 04:25:55;;;;;;;5.43;2.10;;;21.30;55.30;;;;;;5017963;28;20079;-65
2021/06/23 04:28:21;;;;;;;5.32;2.45;;;21.30;55.30;;;;;;5035468;28;20075;-64
2021/06/23 04:30:46;;;;;;;4.68;2.60;;;21.30;55.20;;;;;;5035419;28;20025;-65
2021/06/23 04:33:12;;;;;;;4.55;2.20;;;21.30;55.20;;;;;;5035309;28;20033;-65
2021/06/23 04:35:38;;;;;;;5.75;2.35;;;21.30;55.20;;;;;;5035361;28;20087;-65
2021/06/23 04:38:03;;;;;;;5.25;2.30;;;21.30;55.20;;;;;;5035289;28;20044;-65
2021/06/23 04:40:29;;;;;;;5.93;2.40;;;21.30;55.20;;;;;;5035293;28;20468;-65
2021/06/23 04:42:55;;;;;;;6.45;2.35;;;21.30;55.20;;;;;;5034412;28;20033;-65
2021/06/23 04:45:20;;;;;;;6.63;2.45;;;21.30;55.20;;;;;;5035017;28;20046;-65
2021/06/23 04:47:46;;;;;;;5.45;2.33;;;21.30;55.20;;;;;;5035097;28;20018;-65
2021/06/23 04:50:12;;;;;;;7.35;2.50;;;21.20;55.20;;;;;;5035258;28;20469;-65
2021/06/23 04:52:37;;;;;;;6.03;2.45;;;21.30;55.20;;;;;;5035000;28;20112;-65
2021/06/23 04:55:05;;;;;;;4.35;2.60;;;21.30;55.30;;;;;;5034912;28;20430;-65
2021/06/23 04:57:30;;;;;;;6.03;2.60;;;21.30;55.10;;;;;;5034966;28;20110;-65
2021/06/23 04:59:56;;;;;;;5.88;2.33;;;21.20;55.10;;;;;;5034956;28;20069;-65
2021/06/23 05:02:21;;;;;;;6.03;2.25;;;21.20;55.20;;;;;;5035093;28;20033;-65
2021/06/23 05:04:48;;;;;;;6.90;2.45;;;21.30;55.10;;;;;;5034791;28;20036;-65
2021/06/23 05:07:14;;;;;;;5.82;2.28;;;21.30;55.00;;;;;;5034701;28;20032;-65
2021/06/23 05:09:40;;;;;;;4.55;2.20;;;21.30;54.90;;;;;;5016785;28;20474;-65
2021/06/23 05:12:09;;;;;;;5.82;2.47;;;21.30;55.00;;;;;;5034583;28;20072;-65
2021/06/23 05:14:35;;;;;;;4.13;1.90;;;21.30;55.00;;;;;;5034622;28;20022;-65
2021/06/23 05:17:02;;;;;;;4.53;2.30;;;21.30;54.90;;;;;;5034312;28;20493;-65
2021/06/23 05:19:28;;;;;;;5.03;2.58;;;21.30;54.90;;;;;;5034441;28;20426;-65
2021/06/23 05:21:54;;;;;;;6.15;2.97;;;21.30;55.00;;;;;;5034328;28;20052;-65
2021/06/23 05:24:19;;;;;;;4.18;1.95;;;21.30;54.90;;;;;;5034273;28;20477;-65
2021/06/23 05:26:45;;;;;;;5.00;2.17;;;21.30;54.90;;;;;;5034389;28;20030;-65
2021/06/23 05:29:11;;;;;;;5.05;2.13;;;21.30;54.90;;;;;;5034507;28;20176;-65
2021/06/23 05:31:37;;;;;;;6.07;2.05;;;21.30;54.90;;;;;;5016921;28;20512;-65
2021/06/23 05:34:03;;;;;;;5.70;2.60;;;21.40;54.90;;;;;;5034447;28;20400;-65
2021/06/23 05:36:28;;;;;;;3.97;2.17;;;21.30;54.90;;;;;;5034150;28;20041;-65
2021/06/23 05:38:55;;;;;;;4.20;2.22;;;21.30;54.90;;;;;;5034232;28;20034;-65
2021/06/23 05:41:21;;;;;;;5.20;2.20;;;21.30;54.90;;;;;;5034057;28;20445;-65
2021/06/23 05:43:46;;;;;;;5.25;2.22;;;21.40;54.80;;;;;;5016219;28;20029;-65
2021/06/23 05:46:12;;;;;;;4.35;2.15;;;21.30;54.80;;;;;;5033766;28;20057;-65
2021/06/23 05:48:38;;;;;;;6.32;2.42;;;21.40;54.80;;;;;;5034150;28;20022;-66
2021/06/23 05:51:05;;;;;;;4.90;2.10;;;21.40;54.80;;;;;;5033951;28;20040;-65
2021/06/23 05:53:30;;;;;;;6.68;2.47;;;21.40;54.80;;;;;;5032876;28;20367;-66
2021/06/23 05:55:56;;;;;;;5.90;2.42;;;21.40;54.70;;;;;;5033984;28;20155;-66
2021/06/23 05:58:22;;;;;;;4.35;2.20;;;21.40;54.70;;;;;;5033714;28;20029;-66
2021/06/23 06:00:48;;;;;;;5.25;2.13;;;21.40;54.70;;;;;;5033698;28;20025;-65
2021/06/23 06:03:13;;;;;;;5.45;2.10;;;21.40;54.70;;;;;;5033590;28;20108;-66
2021/06/23 06:05:39;;;;;;;4.40;2.00;;;21.40;54.60;;;;;;5033851;28;20465;-65
2021/06/23 06:08:05;;;;;;;4.68;1.92;;;21.40;54.60;;;;;;5033506;28;20040;-65
2021/06/23 06:10:32;;;;;;;5.75;2.58;;;21.40;54.60;;;;;;5033676;28;20320;-65
2021/06/23 06:12:58;;;;;;;4.43;2.03;;;21.50;54.50;;;;;;5033763;28;20362;-66
2021/06/23 06:15:23;;;;;;;4.97;1.90;;;21.50;54.60;;;;;;5033602;28;20033;-66
2021/06/23 06:17:49;;;;;;;4.25;2.20;;;21.50;54.60;;;;;;5033213;28;20037;-66
2021/06/23 06:20:14;;;;;;;5.97;2.30;;;21.40;54.60;;;;;;5033810;28;20029;-66
2021/06/23 06:22:40;;;;;;;7.97;2.67;;;21.40;54.60;;;;;;5033626;28;20021;-66
2021/06/23 06:25:06;;;;;;;8.77;3.13;;;21.40;54.50;;;;;;5028216;28;20441;-65
2021/06/23 06:27:32;;;;;;;9.65;3.92;;;21.00;54.10;;;;;;5016314;28;20030;-65
2021/06/23 06:29:57;;;;;;;9.80;3.83;;;20.90;55.10;;;;;;5019605;28;20390;-65
2021/06/23 06:32:23;;;;;;;12.60;3.45;;;20.90;55.20;;;;;;5027158;28;20478;-64
2021/06/23 06:34:48;;;;;;;11.75;3.40;;;20.80;54.90;;;;;;5012111;28;20597;-65
2021/06/23 06:37:14;;;;;;;8.88;3.05;;;20.70;55.30;;;;;;5022180;28;20400;-65
2021/06/23 06:39:40;;;;;;;7.63;2.70;;;20.80;55.30;;;;;;5030546;28;20578;-65
2021/06/23 06:42:06;;;;;;;11.93;3.38;;;20.80;55.20;;;;;;5031846;28;20400;-65
2021/06/23 06:44:32;;;;;;;11.55;3.55;;;20.80;55.20;;;;;;5026792;28;20091;-65
2021/06/23 06:46:59;;;;;;;9.73;3.10;;;20.90;55.00;;;;;;5013237;28;20107;-65
2021/06/23 06:49:29;;;;;;;7.75;2.80;;;20.90;54.60;;;;;;5031550;28;20022;-65
2021/06/23 06:51:57;;;;;;;8.85;3.47;;;20.80;54.40;;;;;;5038366;28;20030;-65
2021/06/23 06:54:22;;;;;;;8.52;3.42;;;20.90;54.40;;;;;;5035251;28;20053;-65
2021/06/23 06:56:48;;;;;;;14.95;3.15;;;21.00;54.10;;;;;;5040971;28;20056;-65
2021/06/23 06:59:13;;;;;;;7.78;3.03;;;20.90;54.20;;;;;;5038297;28;20053;-64
2021/06/23 07:01:39;;;;;;;7.68;2.88;;;20.80;54.90;;;;;;5032499;28;20022;-65
2021/06/23 07:04:04;;;;;;;10.32;3.22;;;20.80;54.60;;;;;;5032247;28;20473;-65
2021/06/23 07:06:30;;;;;;;10.95;3.58;;;20.70;54.80;;;;;;5035534;28;20029;-66
2021/06/23 07:08:55;;;;;;;8.20;2.90;;;20.80;54.60;;;;;;5036777;28;20155;-65
2021/06/23 07:11:21;;;;;;;9.90;3.30;;;20.80;54.90;;;;;;5035684;28;20030;-65
2021/06/23 07:13:46;;;;;;;10.48;3.05;;;20.80;54.60;;;;;;5036860;28;20104;-66
2021/06/23 07:16:12;;;;;;;11.10;3.45;;;20.80;54.60;;;;;;5018585;28;20100;-66
2021/06/23 07:18:37;;;;;;;15.00;3.42;;;20.80;54.50;;;;;;5035578;28;20025;-65
2021/06/23 07:21:03;;;;;;;8.48;3.08;;;20.70;54.70;;;;;;5036021;28;20473;-66
2021/06/23 07:23:29;;;;;;;12.48;2.92;;;20.60;54.50;;;;;;5036595;28;20373;-64
2021/06/23 07:25:54;;;;;;;14.48;3.83;;;20.90;54.10;;;;;;5038765;28;20037;-64
2021/06/23 07:28:30;;;;;;;7.93;3.30;;;21.00;54.10;;;;;;5030992;28;20505;-65
2021/06/23 07:30:56;;;;;;;14.60;3.90;;;21.00;53.90;;;;;;5015294;28;20431;-64
2021/06/23 07:33:21;;;;;;;10.85;2.90;;;21.00;53.90;;;;;;5025103;28;20056;-65
2021/06/23 07:38:31;;;;;;;9.40;2.85;;;21.10;53.30;;;;;;5027353;28;20044;-65
2021/06/23 07:41:01;;;;;;;9.65;2.45;;;21.10;53.30;;;;;;5034402;28;20030;-65
2021/06/23 07:43:28;;;;;;;9.88;3.03;;;21.20;53.10;;;;;;5034690;28;20031;-65
2021/06/23 07:45:57;;;;;;;10.48;3.40;;;21.10;53.50;;;;;;5034680;28;20060;-65
2021/06/23 07:48:27;;;;;;;9.50;2.70;;;21.00;53.50;;;;;;5032052;28;20104;-66
2021/06/23 07:51:06;;;;;;;9.95;2.80;;;20.90;53.50;;;;;;5019864;28;20029;-64
2021/06/23 07:53:44;;;;;;;10.27;3.28;;;21.00;53.60;;;;;;5032803;28;20112;-64
2021/06/23 07:56:12;;;;;;;8.30;2.42;;;21.10;53.20;;;;;;5030037;28;21093;-66
2021/06/23 08:09:52;;;;;;;12.82;3.47;;;21.30;52.40;;;;;;5018953;28;20048;-65
2021/06/23 08:12:22;;;;;;;7.38;2.83;;;21.50;52.60;;;;;;5032674;28;20505;-66
2021/06/23 08:14:48;;;;;;;9.50;3.25;;;21.50;52.40;;;;;;5023972;28;20060;-64
2021/06/23 08:17:13;;;;;;;11.80;2.97;;;21.50;52.20;;;;;;5030370;28;20068;-62
2021/06/23 08:19:39;;;;;;;11.00;3.38;;;21.40;52.30;;;;;;5033834;28;20037;-64
2021/06/23 08:22:05;;;;;;;8.38;3.08;;;21.50;52.50;;;;;;5033461;28;20037;-64
2021/06/23 08:24:30;;;;;;;12.05;2.95;;;21.50;52.40;;;;;;5032945;28;20030;-65
2021/06/23 08:26:56;;;;;;;9.85;2.97;;;21.50;52.30;;;;;;5030446;28;20510;-65
2021/06/23 08:29:21;;;;;;;7.97;2.58;;;21.50;51.90;;;;;;5033122;28;20029;-67
2021/06/23 08:31:47;;;;;;;12.05;2.35;;;21.50;51.80;;;;;;5036792;28;20041;-65
2021/06/23 08:34:13;;;;;;;9.50;2.70;;;21.50;51.90;;;;;;5037887;28;20033;-65
2021/06/23 08:36:38;;;;;;;11.93;3.05;;;21.50;52.10;;;;;;5033961;28;20041;-64
2021/06/23 08:39:05;;;;;;;10.55;2.25;;;21.50;51.90;;;;;;5033386;28;20060;-64
2021/06/23 08:41:33;;;;;;;9.13;2.85;;;21.60;51.90;;;;;;5032765;28;20040;-65
2021/06/23 08:43:59;;;;;;;8.88;2.92;;;21.60;51.80;;;;;;5033304;28;20029;-66
2021/06/23 08:46:25;;;;;;;14.00;3.15;;;21.60;51.40;;;;;;5030586;28;20045;-66
2021/06/23 08:48:52;;;;;;;9.25;2.78;;;21.60;51.30;;;;;;5033195;28;20034;-67
2021/06/23 08:51:18;;;;;;;10.65;2.70;;;21.70;51.00;;;;;;5031642;28;20032;-66
2021/06/23 08:53:44;;;;;;;7.70;2.95;;;21.70;51.00;;;;;;5032230;28;20029;-65
2021/06/23 08:56:10;;;;;;;12.57;3.25;;;21.70;51.00;;;;;;5032415;28;20327;-65
2021/06/23 08:58:35;;;;;;;11.70;3.42;;;21.70;50.70;;;;;;5029058;28;20037;-65
2021/06/23 09:01:02;;;;;;;6.82;1.98;;;21.80;51.20;;;;;;5026290;28;20088;-66
2021/06/23 09:03:28;;;;;;;9.77;2.83;;;21.80;51.10;;;;;;5030207;28;20036;-67
2021/06/23 09:05:56;;;;;;;14.27;3.03;;;21.70;51.00;;;;;;5032723;28;20096;-67
2021/06/23 09:08:35;;;;;;;8.45;3.20;;;21.70;50.50;;;;;;5030041;28;20039;-68
2021/06/23 09:11:03;;;;;;;14.00;2.92;;;21.70;50.80;;;;;;5026196;28;20029;-68
2021/06/23 09:13:28;;;;;;;10.52;2.95;;;21.70;50.90;;;;;;5030328;28;20029;-67
2021/06/23 09:16:02;;;;;;;15.50;4.13;;;21.70;50.50;;;;;;5031332;28;20493;-67
2021/06/23 09:18:36;;;;;;;12.02;3.05;;;21.70;50.50;;;;;;5031064;28;20064;-66
2021/06/23 09:21:13;;;;;;;10.25;3.72;;;21.70;50.60;;;;;;5022950;28;20358;-65
2021/06/23 09:23:47;;;;;;;9.98;2.85;;;21.70;50.80;;;;;;5031625;28;20038;-64
2021/06/23 09:26:27;;;;;;;10.88;3.13;;;21.80;50.70;;;;;;5031864;28;20477;-65
2021/06/23 09:29:17;;;;;;;10.88;2.83;;;21.90;51.00;;;;;;5029805;28;20128;-65
2021/06/23 09:31:59;;;;;;;9.45;2.58;;;21.80;50.90;;;;;;5030067;28;20029;-67
2021/06/23 09:34:34;;;;;;;10.18;2.90;;;21.90;51.10;;;;;;5031879;28;20028;-67
2021/06/23 09:37:20;;;;;;;9.05;2.92;;;22.00;50.90;;;;;;5016819;28;20022;-66
2021/06/23 09:39:46;;;;;;;11.73;2.70;;;22.00;51.10;;;;;;5031209;28;20060;-66
2021/06/23 09:42:12;;;;;;;8.52;2.38;;;22.00;50.90;;;;;;5031522;28;20469;-65
2021/06/23 09:44:40;;;;;;;6.22;2.22;;;22.00;50.90;;;;;;5029336;28;20568;-65
2021/06/23 09:47:06;;;;;;;7.95;2.33;;;22.00;51.50;;;;;;5031774;28;20037;-66
2021/06/23 09:49:37;;;;;;;8.98;2.25;;;22.00;51.50;;;;;;5033008;28;20405;-66
2021/06/23 09:52:13;;;;;;;9.32;2.78;;;22.00;51.30;;;;;;5020528;28;20565;-66
2021/06/23 09:54:50;;;;;;;9.00;2.92;;;22.00;50.80;;;;;;5013408;28;20520;-66
2021/06/23 09:57:17;;;;;;;6.97;2.80;;;22.00;50.80;;;;;;5029941;28;20029;-65
2021/06/23 09:59:47;;;;;;;7.90;2.00;;;22.10;50.70;;;;;;5031006;28;20028;-66
2021/06/23 10:02:22;;;;;;;9.50;2.42;;;22.10;51.30;;;;;;5030629;28;20021;-67
2021/06/23 10:04:48;;;;;;;8.40;2.85;;;22.10;51.40;;;;;;5030768;28;20359;-66
2021/06/23 10:07:39;;;;;;;8.05;2.20;;;22.10;51.40;;;;;;5031915;28;20048;-66
2021/06/23 10:10:07;;;;;;;6.80;2.08;;;22.20;51.00;;;;;;5029128;28;20041;-66
2021/06/23 10:12:32;;;;;;;6.57;2.08;;;22.20;51.50;;;;;;5032083;28;20573;-65
2021/06/23 10:14:58;;;;;;;7.20;2.28;;;22.20;51.50;;;;;;5030746;28;20049;-65
2021/06/23 10:17:24;;;;;;;8.45;2.40;;;22.20;51.50;;;;;;5028921;28;20033;-65
2021/06/23 10:19:50;;;;;;;10.20;3.15;;;22.20;51.50;;;;;;5029043;28;20125;-65
2021/06/23 10:22:16;;;;;;;8.15;1.92;;;22.20;51.10;;;;;;5030502;28;20571;-64
2021/06/23 10:24:44;;;;;;;6.88;2.17;;;22.20;51.30;;;;;;5030573;28;20026;-67
2021/06/23 10:27:11;;;;;;;10.93;2.67;;;22.30;50.90;;;;;;5031999;28;20112;-67
2021/06/23 10:29:38;;;;;;;6.47;2.20;;;22.20;51.10;;;;;;5030716;28;20078;-68
2021/06/23 10:32:06;;;;;;;6.35;2.15;;;22.30;51.00;;;;;;5008042;28;20025;-67
2021/06/23 10:34:32;;;;;;;7.68;2.10;;;22.30;51.30;;;;;;5010071;28;20029;-66
2021/06/23 10:36:58;;;;;;;5.88;2.20;;;22.30;51.40;;;;;;5011545;28;20481;-67
2021/06/23 10:39:29;;;;;;;8.57;2.33;;;22.40;51.40;;;;;;5011991;28;20429;-65
2021/06/23 10:42:04;;;;;;;6.82;2.15;;;22.30;51.20;;;;;;5030689;28;20481;-67
2021/06/23 10:44:32;;;;;;;7.75;2.28;;;22.40;50.90;;;;;;5031087;28;20069;-67
2021/06/23 10:47:01;;;;;;;8.18;1.83;;;22.30;51.20;;;;;;5014287;28;20379;-69
2021/06/23 10:49:58;;;;;;;7.63;2.05;;;22.40;50.90;;;;;;5016326;28;20041;-67
2021/06/23 10:52:25;;;;;;;5.07;1.80;;;22.30;50.50;;;;;;4977218;28;20050;-66
2021/06/23 10:54:57;;;;;;;5.57;1.92;;;22.40;51.10;;;;;;5021692;28;20038;-65
2021/06/23 10:57:33;;;;;;;7.07;1.83;;;22.40;51.20;;;;;;5007746;28;20030;-67
2021/06/23 11:00:21;;;;;;;9.20;2.20;;;22.40;50.90;;;;;;5014098;28;20053;-67
2021/06/23 11:02:59;;;;;;;6.55;1.90;;;22.40;51.20;;;;;;5021204;28;20474;-66
2021/06/23 11:05:33;;;;;;;8.27;2.30;;;22.40;51.20;;;;;;5030683;28;20029;-64
2021/06/23 11:07:59;;;;;;;8.50;2.08;;;22.50;51.20;;;;;;5030169;28;20104;-65
2021/06/23 11:10:28;;;;;;;8.10;2.05;;;22.50;51.10;;;;;;5029311;28;20600;-68
2021/06/23 11:13:01;;;;;;;7.07;1.48;;;22.50;51.00;;;;;;5021831;28;20546;-70
2021/06/23 11:15:35;;;;;;;19.83;2.65;;;22.50;51.00;;;;;;5029501;28;20033;-67
2021/06/23 11:18:25;;;;;;;10.73;2.63;;;22.50;51.20;;;;;;5013676;28;20061;-67
2021/06/23 11:21:05;;;;;;;7.28;2.20;;;22.50;51.00;;;;;;5029041;28;20056;-65
2021/06/23 11:23:48;;;;;;;7.90;2.17;;;22.50;50.80;;;;;;5023946;28;20033;-65
2021/06/23 11:26:22;;;;;;;6.88;2.17;;;22.50;51.40;;;;;;5029341;28;20386;-66
2021/06/23 11:28:50;;;;;;;7.72;2.50;;;22.50;51.40;;;;;;5029964;28;20025;-65
2021/06/23 11:31:17;;;;;;;7.85;2.33;;;22.50;51.20;;;;;;5030163;28;20041;-66
2021/06/23 11:33:45;;;;;;;8.35;2.67;;;22.50;51.20;;;;;;5030798;28;20026;-66
2021/06/23 11:36:13;;;;;;;14.30;2.88;;;22.50;50.90;;;;;;5031049;28;20033;-71
2021/06/23 11:38:41;;;;;;;8.20;2.45;;;22.50;50.90;;;;;;5029363;28;20087;-68
2021/06/23 11:41:08;;;;;;;6.13;2.33;;;22.50;50.80;;;;;;5025762;28;20037;-64
2021/06/23 11:43:34;;;;;;;12.35;2.42;;;22.60;51.00;;;;;;5030355;28;20092;-66
2021/06/23 11:46:00;;;;;;;10.65;2.30;;;22.60;51.30;;;;;;5030269;28;20073;-66
2021/06/23 11:48:26;;;;;;;10.63;3.13;;;22.60;51.20;;;;;;5030155;28;20064;-66
2021/06/23 11:50:52;;;;;;;10.63;2.85;;;22.60;50.90;;;;;;5030425;28;20096;-67
2021/06/23 11:53:19;;;;;;;16.50;2.35;;;22.60;51.20;;;;;;5017162;28;20091;-66
2021/06/23 11:55:48;;;;;;;8.98;1.95;;;22.60;51.10;;;;;;5015886;28;20037;-66
2021/06/23 11:58:13;;;;;;;12.50;2.85;;;22.60;51.20;;;;;;5033569;28;20041;-66
2021/06/23 12:00:40;;;;;;;9.75;2.35;;;22.60;51.30;;;;;;5033642;28;20029;-67
2021/06/23 12:03:08;;;;;;;11.30;2.78;;;22.60;51.10;;;;;;5033441;28;20055;-65
2021/06/23 12:05:34;;;;;;;7.72;1.90;;;22.60;51.10;;;;;;5033158;28;20029;-64
2021/06/23 12:07:59;;;;;;;10.13;2.70;;;22.60;51.40;;;;;;5031586;28;20033;-64
2021/06/23 12:10:27;;;;;;;6.70;2.50;;;22.60;51.30;;;;;;5014396;28;20104;-65
2021/06/23 12:12:53;;;;;;;7.35;2.58;;;22.60;51.60;;;;;;5032801;28;20022;-66
2021/06/23 12:15:20;;;;;;;7.05;2.30;;;22.70;51.50;;;;;;5012076;28;20045;-69
2021/06/23 12:17:48;;;;;;;5.25;2.00;;;22.70;51.50;;;;;;5020189;28;20029;-67
2021/06/23 12:20:14;;;;;;;5.95;2.08;;;22.70;51.40;;;;;;5020128;28;20428;-66
2021/06/23 12:22:40;;;;;;;12.43;2.75;;;22.70;51.60;;;;;;5014941;28;20114;-67
2021/06/23 12:25:11;;;;;;;11.00;2.83;;;22.70;50.90;;;;;;5033079;28;20461;-67
2021/06/23 12:27:37;;;;;;;8.90;2.08;;;22.60;50.80;;;;;;5032158;28;20025;-67
2021/06/23 12:30:05;;;;;;;7.88;2.13;;;22.60;51.40;;;;;;5029560;28;20473;-69
2021/06/23 12:32:31;;;;;;;9.95;3.15;;;22.70;51.30;;;;;;5020433;28;20057;-68
2021/06/23 12:34:58;;;;;;;9.05;2.88;;;22.60;50.90;;;;;;5030321;28;20099;-68
2021/06/23 12:37:24;;;;;;;9.98;2.88;;;22.60;50.90;;;;;;5024032;28;20030;-69
2021/06/23 12:39:49;;;;;;;12.90;3.22;;;22.60;50.90;;;;;;4995608;28;20087;-68
2021/06/23 12:42:15;;;;;;;9.02;3.05;;;22.60;50.80;;;;;;5019011;28;20099;-68
2021/06/23 12:44:42;;;;;;;12.63;3.42;;;22.60;50.60;;;;;;5030541;28;20088;-70
2021/06/23 12:47:07;;;;;;;9.98;3.70;;;22.70;50.60;;;;;;5034101;28;20545;-69
2021/06/23 12:49:33;;;;;;;8.82;2.80;;;22.60;50.00;;;;;;5033281;28;20108;-68
2021/06/23 12:51:59;;;;;;;11.43;3.25;;;22.60;49.80;;;;;;5015286;28;20036;-68
2021/06/23 12:54:26;;;;;;;15.20;3.67;;;22.60;50.10;;;;;;5016381;28;20381;-68
2021/06/23 12:56:52;;;;;;;9.13;2.42;;;22.60;50.50;;;;;;5034209;28;20032;-68
2021/06/23 12:59:17;;;;;;;10.48;2.88;;;22.70;50.70;;;;;;5016556;28;20033;-69
2021/06/23 13:01:43;;;;;;;6.57;1.90;;;22.70;50.80;;;;;;5015645;28;20473;-69